createdAt,value
2018-12-07T00:00:53.333Z,91.44
2018-12-07T00:01:53.341Z,90.82
2018-12-07T00:02:53.304Z,90.37
2018-12-07T00:03:53.295Z,90.68
2018-12-07T00:04:53.286Z,90.82
2018-12-07T00:05:53.273Z,91.03
2018-12-07T00:06:53.289Z,90.72
2018-12-07T00:07:53.250Z,90.68
2018-12-07T00:08:53.245Z,90.72
2018-12-07T00:09:53.230Z,90.52
2018-12-07T00:10:53.241Z,90.82
2018-12-07T00:11:53.206Z,90.82
2018-12-07T00:12:53.217Z,90.78
2018-12-07T00:13:53.182Z,90.21
2018-12-07T00:14:53.171Z,90.31
2018-12-07T00:15:53.191Z,90.52
2018-12-07T00:16:53.152Z,90.72
2018-12-07T00:17:53.220Z,90.68
2018-12-07T00:18:53.130Z,90.37
2018-12-07T00:19:53.118Z,90.99
2018-12-07T00:20:53.128Z,90.88
2018-12-07T00:21:53.106Z,90.78
2018-12-07T00:22:53.106Z,90.58
2018-12-07T00:23:53.070Z,90.68
2018-12-07T00:24:53.059Z,90.88
2018-12-07T00:25:53.052Z,90.27
2018-12-07T00:26:53.040Z,89.97
2018-12-07T00:27:53.049Z,90.47
2018-12-07T00:28:53.020Z,90.58
2018-12-07T00:29:53.004Z,90.88
2018-12-07T00:30:53.016Z,90.88
2018-12-07T00:31:52.981Z,90.88
2018-12-07T00:32:52.972Z,90.68
2018-12-07T00:33:53.382Z,90.47
2018-12-07T00:34:53.066Z,90.68
2018-12-07T00:35:53.340Z,90.88
2018-12-07T00:36:52.926Z,90.68
2018-12-07T00:37:52.914Z,91.09
2018-12-07T00:38:52.926Z,90.88
2018-12-07T00:39:52.915Z,90.78
2018-12-07T00:40:52.886Z,90.68
2018-12-07T00:41:52.902Z,90.47
2018-12-07T00:42:52.860Z,90.78
2018-12-07T00:43:52.849Z,90.68
2018-12-07T00:44:52.841Z,90.17
2018-12-07T00:45:52.849Z,90.37
2018-12-07T00:46:52.814Z,90.47
2018-12-07T00:47:52.803Z,90.88
2018-12-07T00:48:52.795Z,91.09
2018-12-07T00:49:52.786Z,90.99
2018-12-07T00:50:52.794Z,90.47
2018-12-07T00:51:52.790Z,91.29
2018-12-07T00:52:52.750Z,90.17
2018-12-07T00:53:52.741Z,90.64
2018-12-07T00:54:52.727Z,89.97
2018-12-07T00:55:52.715Z,90.27
2018-12-07T00:56:52.791Z,90.37
2018-12-07T00:57:52.693Z,90.06
2018-12-07T00:58:52.687Z,90.68
2018-12-07T00:59:52.697Z,90.17
2018-12-07T01:00:52.659Z,90.78
2018-12-07T01:01:52.649Z,91.09
2018-12-07T01:02:52.642Z,91.19
2018-12-07T01:03:52.650Z,90.88
2018-12-07T01:04:52.613Z,90.88
2018-12-07T01:05:52.608Z,91.09
2018-12-07T01:06:52.618Z,91.19
2018-12-07T01:07:52.582Z,90.47
2018-12-07T01:08:52.600Z,91.50
2018-12-07T01:09:52.562Z,91.19
2018-12-07T01:10:52.553Z,90.88
2018-12-07T01:11:52.535Z,91.19
2018-12-07T01:12:52.528Z,90.99
2018-12-07T01:13:52.536Z,91.80
2018-12-07T01:14:52.502Z,91.60
2018-12-07T01:15:52.492Z,91.19
2018-12-07T01:16:52.524Z,91.60
2018-12-07T01:17:52.474Z,91.50
2018-12-07T01:18:52.460Z,91.50
2018-12-07T01:19:52.451Z,91.29
2018-12-07T01:20:52.436Z,91.19
2018-12-07T01:21:52.452Z,90.68
2018-12-07T01:22:52.416Z,91.15
2018-12-07T01:23:52.404Z,91.19
2018-12-07T01:24:52.392Z,90.88
2018-12-07T01:25:52.385Z,90.78
2018-12-07T01:26:52.405Z,91.09
2018-12-07T01:27:52.363Z,91.05
2018-12-07T01:28:52.350Z,91.05
2018-12-07T01:29:52.335Z,91.05
2018-12-07T01:30:52.330Z,91.15
2018-12-07T01:31:52.335Z,90.84
2018-12-07T01:32:52.335Z,90.94
2018-12-07T01:33:52.292Z,91.19
2018-12-07T01:34:52.279Z,90.94
2018-12-07T01:35:52.270Z,90.53
2018-12-07T01:36:52.263Z,91.39
2018-12-07T01:37:52.275Z,91.35
2018-12-07T01:38:52.242Z,90.88
2018-12-07T01:39:52.228Z,91.15
2018-12-07T01:40:52.215Z,90.53
2018-12-07T01:41:52.203Z,91.91
2018-12-07T01:42:52.217Z,91.25
2018-12-07T01:43:52.180Z,91.15
2018-12-07T01:44:52.168Z,91.70
2018-12-07T01:45:52.180Z,91.46
2018-12-07T01:46:52.145Z,91.80
2018-12-07T01:47:52.163Z,91.35
2018-12-07T01:48:52.126Z,91.29
2018-12-07T01:49:52.117Z,90.64
2018-12-07T01:50:52.102Z,90.64
2018-12-07T01:51:52.131Z,90.68
2018-12-07T01:52:52.081Z,91.29
2018-12-07T01:53:52.074Z,91.76
2018-12-07T01:54:52.058Z,91.46
2018-12-07T01:55:52.047Z,91.50
2018-12-07T01:56:52.056Z,91.46
2018-12-07T01:57:52.028Z,91.50
2018-12-07T01:58:52.010Z,91.35
2018-12-07T01:59:52.048Z,91.66
2018-12-07T02:00:51.993Z,91.39
2018-12-07T02:01:51.977Z,91.46
2018-12-07T02:02:51.967Z,91.35
2018-12-07T02:03:51.986Z,91.56
2018-12-07T02:04:51.945Z,91.50
2018-12-07T02:05:51.941Z,91.46
2018-12-07T02:06:51.922Z,91.39
2018-12-07T02:07:51.912Z,92.17
2018-12-07T02:08:51.923Z,92.07
2018-12-07T02:09:51.892Z,91.66
2018-12-07T02:10:51.893Z,91.56
2018-12-07T02:11:51.871Z,90.74
2018-12-07T02:12:51.863Z,90.84
2018-12-07T02:13:51.868Z,91.56
2018-12-07T02:14:51.860Z,91.29
2018-12-07T02:15:51.829Z,91.86
2018-12-07T02:16:51.825Z,91.76
2018-12-07T02:17:51.809Z,91.76
2018-12-07T02:18:51.794Z,91.66
2018-12-07T02:19:51.800Z,91.86
2018-12-07T02:20:51.770Z,91.76
2018-12-07T02:21:51.758Z,92.17
2018-12-07T02:22:51.747Z,92.58
2018-12-07T02:23:51.763Z,91.46
2018-12-07T02:24:51.721Z,91.56
2018-12-07T02:25:51.748Z,91.86
2018-12-07T02:26:51.701Z,91.56
2018-12-07T02:27:51.691Z,92.07
2018-12-07T02:28:51.683Z,92.17
2018-12-07T02:29:51.666Z,92.27
2018-12-07T02:30:51.679Z,92.27
2018-12-07T02:31:51.668Z,91.86
2018-12-07T02:32:51.637Z,92.68
2018-12-07T02:33:51.651Z,92.47
2018-12-07T02:34:51.613Z,92.32
2018-12-07T02:35:51.621Z,92.62
2018-12-07T02:36:51.591Z,93.24
2018-12-07T02:37:51.603Z,93.24
2018-12-07T02:38:51.590Z,93.33
2018-12-07T02:39:51.563Z,93.24
2018-12-07T02:40:51.550Z,93.44
2018-12-07T02:41:51.532Z,92.88
2018-12-07T02:42:51.547Z,93.74
2018-12-07T02:43:51.509Z,93.54
2018-12-07T02:44:51.526Z,94.06
2018-12-07T02:45:51.491Z,93.85
2018-12-07T02:46:51.476Z,93.85
2018-12-07T02:47:51.490Z,94.36
2018-12-07T02:48:51.497Z,94.15
2018-12-07T02:49:51.443Z,94.15
2018-12-07T02:50:51.437Z,94.36
2018-12-07T02:51:51.426Z,94.46
2018-12-07T02:52:51.409Z,94.15
2018-12-07T02:53:51.424Z,94.56
2018-12-07T02:54:51.417Z,94.15
2018-12-07T02:55:51.376Z,94.46
2018-12-07T02:56:51.394Z,94.15
2018-12-07T02:57:51.360Z,93.95
2018-12-07T02:58:51.344Z,93.85
2018-12-07T02:59:51.331Z,93.95
2018-12-07T03:00:51.363Z,94.36
2018-12-07T03:01:51.310Z,94.56
2018-12-07T03:02:51.299Z,94.26
2018-12-07T03:03:51.287Z,94.26
2018-12-07T03:04:51.275Z,93.95
2018-12-07T03:05:51.288Z,93.95
2018-12-07T03:06:51.252Z,94.36
2018-12-07T03:07:51.265Z,94.15
2018-12-07T03:08:51.231Z,93.95
2018-12-07T03:09:51.223Z,93.44
2018-12-07T03:10:51.225Z,93.33
2018-12-07T03:11:51.200Z,93.54
2018-12-07T03:12:51.188Z,93.33
2018-12-07T03:13:51.188Z,93.74
2018-12-07T03:14:51.162Z,93.24
2018-12-07T03:15:51.171Z,93.33
2018-12-07T03:16:51.167Z,93.33
2018-12-07T03:17:51.133Z,93.13
2018-12-07T03:18:51.129Z,93.33
2018-12-07T03:19:51.113Z,93.13
2018-12-07T03:20:51.125Z,93.24
2018-12-07T03:21:51.086Z,93.44
2018-12-07T03:22:51.080Z,93.44
2018-12-07T03:23:51.086Z,93.33
2018-12-07T03:24:51.052Z,93.33
2018-12-07T03:25:51.042Z,93.33
2018-12-07T03:26:51.037Z,93.33
2018-12-07T03:27:51.020Z,93.44
2018-12-07T03:28:51.032Z,93.44
2018-12-07T03:29:50.997Z,93.33
2018-12-07T03:30:50.987Z,93.24
2018-12-07T03:31:50.999Z,93.24
2018-12-07T03:32:50.977Z,93.03
2018-12-07T03:33:50.955Z,93.19
2018-12-07T03:34:50.943Z,92.52
2018-12-07T03:35:50.962Z,93.03
2018-12-07T03:36:50.918Z,92.93
2018-12-07T03:37:50.914Z,93.24
2018-12-07T03:38:50.897Z,92.32
2018-12-07T03:39:50.921Z,91.70
2018-12-07T03:40:50.882Z,92.68
2018-12-07T03:41:50.886Z,92.37
2018-12-07T03:42:50.858Z,92.37
2018-12-07T03:43:50.841Z,92.17
2018-12-07T03:44:50.855Z,91.96
2018-12-07T03:45:50.821Z,91.96
2018-12-07T03:46:50.809Z,92.37
2018-12-07T03:47:50.804Z,91.86
2018-12-07T03:48:50.792Z,92.47
2018-12-07T03:49:50.805Z,92.47
2018-12-07T03:50:50.767Z,92.47
2018-12-07T03:51:50.829Z,92.47
2018-12-07T03:52:50.745Z,92.47
2018-12-07T03:53:50.730Z,91.96
2018-12-07T03:54:50.723Z,92.58
2018-12-07T03:55:50.738Z,92.58
2018-12-07T03:56:50.697Z,91.96
2018-12-07T03:57:50.685Z,91.46
2018-12-07T03:58:50.678Z,91.56
2018-12-07T03:59:50.666Z,91.56
2018-12-07T04:00:50.685Z,91.66
2018-12-07T04:01:50.642Z,91.96
2018-12-07T04:02:50.630Z,92.27
2018-12-07T04:03:50.642Z,91.35
2018-12-07T04:04:50.608Z,92.17
2018-12-07T04:05:50.621Z,91.41
2018-12-07T04:06:50.606Z,91.66
2018-12-07T04:07:50.573Z,91.35
2018-12-07T04:08:50.562Z,91.41
2018-12-07T04:09:50.577Z,91.00
2018-12-07T04:10:50.559Z,91.11
2018-12-07T04:11:50.531Z,91.00
2018-12-07T04:12:50.532Z,91.31
2018-12-07T04:13:50.507Z,90.90
2018-12-07T04:14:50.496Z,90.70
2018-12-07T04:15:50.507Z,90.70
2018-12-07T04:16:51.662Z,91.11
2018-12-07T04:17:50.464Z,90.08
2018-12-07T04:18:50.465Z,90.70
2018-12-07T04:19:50.440Z,91.00
2018-12-07T04:20:50.431Z,90.59
2018-12-07T04:21:50.439Z,90.70
2018-12-07T04:22:50.407Z,90.08
2018-12-07T04:23:50.397Z,90.08
2018-12-07T04:24:50.384Z,90.80
2018-12-07T04:25:50.376Z,90.59
2018-12-07T04:26:50.482Z,90.29
2018-12-07T04:27:50.356Z,90.39
2018-12-07T04:28:50.342Z,90.59
2018-12-07T04:29:50.329Z,90.39
2018-12-07T04:30:50.327Z,90.29
2018-12-07T04:31:50.342Z,90.80
2018-12-07T04:32:50.307Z,90.80
2018-12-07T04:33:50.287Z,90.39
2018-12-07T04:34:50.275Z,90.39
2018-12-07T04:35:50.290Z,90.39
2018-12-07T04:36:50.252Z,90.19
2018-12-07T04:37:50.245Z,90.29
2018-12-07T04:38:50.255Z,90.29
2018-12-07T04:39:50.222Z,90.29
2018-12-07T04:40:50.233Z,90.80
2018-12-07T04:41:50.198Z,89.98
2018-12-07T04:42:50.189Z,91.11
2018-12-07T04:43:50.184Z,90.80
2018-12-07T04:44:50.168Z,90.70
2018-12-07T04:45:50.188Z,91.00
2018-12-07T04:46:50.142Z,90.90
2018-12-07T04:47:50.132Z,90.90
2018-12-07T04:48:50.121Z,91.00
2018-12-07T04:49:50.110Z,91.72
2018-12-07T04:50:50.154Z,90.94
2018-12-07T04:51:50.107Z,91.20
2018-12-07T04:52:50.088Z,90.90
2018-12-07T04:53:50.067Z,90.49
2018-12-07T04:54:50.093Z,91.11
2018-12-07T04:55:50.070Z,90.90
2018-12-07T04:56:50.043Z,90.84
2018-12-07T04:57:50.035Z,91.11
2018-12-07T04:58:50.017Z,91.11
2018-12-07T04:59:50.048Z,91.52
2018-12-07T05:00:49.987Z,91.31
2018-12-07T05:01:49.975Z,91.15
2018-12-07T05:02:49.981Z,91.11
2018-12-07T05:03:49.957Z,91.76
2018-12-07T05:04:49.963Z,91.56
2018-12-07T05:05:49.957Z,91.46
2018-12-07T05:06:49.953Z,91.15
2018-12-07T05:07:49.910Z,91.46
2018-12-07T05:08:49.907Z,92.07
2018-12-07T05:09:49.887Z,91.86
2018-12-07T05:10:49.875Z,91.86
2018-12-07T05:11:49.895Z,92.23
2018-12-07T05:12:49.873Z,91.35
2018-12-07T05:13:49.871Z,92.07
2018-12-07T05:14:49.839Z,91.96
2018-12-07T05:15:49.827Z,92.68
2018-12-07T05:16:49.840Z,91.96
2018-12-07T05:17:49.814Z,92.07
2018-12-07T05:18:49.787Z,92.47
2018-12-07T05:19:49.781Z,92.37
2018-12-07T05:20:49.792Z,92.47
2018-12-07T05:21:49.756Z,92.07
2018-12-07T05:22:49.743Z,92.17
2018-12-07T05:23:49.749Z,92.99
2018-12-07T05:24:49.724Z,93.40
2018-12-07T05:25:49.711Z,93.29
2018-12-07T05:26:49.702Z,93.29
2018-12-07T05:27:49.714Z,93.24
2018-12-07T05:28:49.678Z,93.50
2018-12-07T05:29:49.670Z,93.29
2018-12-07T05:30:49.770Z,93.19
2018-12-07T05:31:49.645Z,93.91
2018-12-07T05:32:49.641Z,93.40
2018-12-07T05:33:49.622Z,93.50
2018-12-07T05:34:49.610Z,94.11
2018-12-07T05:35:49.615Z,94.32
2018-12-07T05:36:49.588Z,94.01
2018-12-07T05:37:49.579Z,94.52
2018-12-07T05:38:49.589Z,94.21
2018-12-07T05:39:49.557Z,94.11
2018-12-07T05:40:49.542Z,94.21
2018-12-07T05:41:49.554Z,93.95
2018-12-07T05:42:49.546Z,94.21
2018-12-07T05:43:49.512Z,94.11
2018-12-07T05:44:49.502Z,94.21
2018-12-07T05:45:49.488Z,94.01
2018-12-07T05:46:49.509Z,94.01
2018-12-07T05:47:49.466Z,93.80
2018-12-07T05:48:49.454Z,94.21
2018-12-07T05:49:49.445Z,94.52
2018-12-07T05:50:49.433Z,93.91
2018-12-07T05:51:49.442Z,94.06
2018-12-07T05:52:49.411Z,94.01
2018-12-07T05:53:49.400Z,94.01
2018-12-07T05:54:49.389Z,93.70
2018-12-07T05:55:49.400Z,93.80
2018-12-07T05:56:49.367Z,94.21
2018-12-07T05:57:49.377Z,94.11
2018-12-07T05:58:49.343Z,94.01
2018-12-07T05:59:49.358Z,94.11
2018-12-07T06:00:49.352Z,93.91
2018-12-07T06:01:49.316Z,94.56
2018-12-07T06:02:49.308Z,93.91
2018-12-07T06:03:49.287Z,94.01
2018-12-07T06:04:49.303Z,94.11
2018-12-07T06:05:49.307Z,93.91
2018-12-07T06:06:49.255Z,93.33
2018-12-07T06:07:49.241Z,93.91
2018-12-07T06:08:49.261Z,94.11
2018-12-07T06:09:49.221Z,93.29
2018-12-07T06:10:49.217Z,93.44
2018-12-07T06:11:49.204Z,93.33
2018-12-07T06:12:49.190Z,93.24
2018-12-07T06:13:49.203Z,93.29
2018-12-07T06:14:49.164Z,93.80
2018-12-07T06:15:49.155Z,94.01
2018-12-07T06:16:49.170Z,94.26
2018-12-07T06:17:49.132Z,93.91
2018-12-07T06:18:49.131Z,93.60
2018-12-07T06:19:49.134Z,93.13
2018-12-07T06:20:49.098Z,93.44
2018-12-07T06:21:49.094Z,93.40
2018-12-07T06:22:49.074Z,93.40
2018-12-07T06:23:49.073Z,93.40
2018-12-07T06:24:49.077Z,93.19
2018-12-07T06:25:49.044Z,93.40
2018-12-07T06:26:49.054Z,93.60
2018-12-07T06:27:49.034Z,93.29
2018-12-07T06:28:49.010Z,93.40
2018-12-07T06:29:49.033Z,93.50
2018-12-07T06:30:48.984Z,93.40
2018-12-07T06:31:48.981Z,93.40
2018-12-07T06:32:48.967Z,93.19
2018-12-07T06:33:48.955Z,93.70
2018-12-07T06:34:48.963Z,93.40
2018-12-07T06:35:48.931Z,93.70
2018-12-07T06:36:48.939Z,93.40
2018-12-07T06:37:48.935Z,93.40
2018-12-07T06:38:48.928Z,93.29
2018-12-07T06:39:48.894Z,93.40
2018-12-07T06:40:48.878Z,93.40
2018-12-07T06:41:48.865Z,93.70
2018-12-07T06:42:48.869Z,93.70
2018-12-07T06:43:48.849Z,93.40
2018-12-07T06:44:48.827Z,93.29
2018-12-07T06:45:48.818Z,93.29
2018-12-07T06:46:48.819Z,93.09
2018-12-07T06:47:48.823Z,93.09
2018-12-07T06:48:48.786Z,92.99
2018-12-07T06:49:48.773Z,93.09
2018-12-07T06:50:48.765Z,93.50
2018-12-07T06:51:48.773Z,93.40
2018-12-07T06:52:48.740Z,93.60
2018-12-07T06:53:48.753Z,93.40
2018-12-07T06:54:48.717Z,93.19
2018-12-07T06:55:48.706Z,92.99
2018-12-07T06:56:48.694Z,92.88
2018-12-07T06:57:48.685Z,92.78
2018-12-07T06:58:48.689Z,92.99
2018-12-07T06:59:48.661Z,92.58
2018-12-07T07:00:48.690Z,92.84
2018-12-07T07:01:48.667Z,92.78
2018-12-07T07:02:48.631Z,92.68
2018-12-07T07:03:48.623Z,92.58
2018-12-07T07:04:48.616Z,92.68
2018-12-07T07:05:48.597Z,92.78
2018-12-07T07:06:48.627Z,92.58
2018-12-07T07:07:48.579Z,92.99
2018-12-07T07:08:48.562Z,92.99
2018-12-07T07:09:48.561Z,92.88
2018-12-07T07:10:48.539Z,92.88
2018-12-07T07:11:48.556Z,92.58
2018-12-07T07:12:48.516Z,92.23
2018-12-07T07:13:48.506Z,91.92
2018-12-07T07:14:48.499Z,92.37
2018-12-07T07:15:48.483Z,92.68
2018-12-07T07:16:48.498Z,92.54
2018-12-07T07:17:48.461Z,92.23
2018-12-07T07:18:48.449Z,92.23
2018-12-07T07:19:48.463Z,91.82
2018-12-07T07:20:48.453Z,91.82
2018-12-07T07:21:48.417Z,91.72
2018-12-07T07:22:48.406Z,91.92
2018-12-07T07:23:48.419Z,91.41
2018-12-07T07:24:48.389Z,91.41
2018-12-07T07:25:48.450Z,91.41
2018-12-07T07:26:48.369Z,91.31
2018-12-07T07:27:48.380Z,91.41
2018-12-07T07:28:48.339Z,91.00
2018-12-07T07:29:48.326Z,91.11
2018-12-07T07:30:48.342Z,90.49
2018-12-07T07:31:48.312Z,90.70
2018-12-07T07:32:48.336Z,91.20
2018-12-07T07:33:48.283Z,90.90
2018-12-07T07:34:48.273Z,90.90
2018-12-07T07:35:48.263Z,91.00
2018-12-07T07:36:48.273Z,90.45
2018-12-07T07:37:48.237Z,90.80
2018-12-07T07:38:48.234Z,90.59
2018-12-07T07:39:48.301Z,90.39
2018-12-07T07:40:48.229Z,90.80
2018-12-07T07:41:48.198Z,90.29
2018-12-07T07:42:48.184Z,90.29
2018-12-07T07:43:48.176Z,89.88
2018-12-07T07:44:48.160Z,90.39
2018-12-07T07:45:48.186Z,89.78
2018-12-07T07:46:48.138Z,89.88
2018-12-07T07:47:48.128Z,89.98
2018-12-07T07:48:48.115Z,90.39
2018-12-07T07:49:48.112Z,90.59
2018-12-07T07:50:48.117Z,90.29
2018-12-07T07:51:48.112Z,90.80
2018-12-07T07:52:48.073Z,90.90
2018-12-07T07:53:48.059Z,90.08
2018-12-07T07:54:48.048Z,90.59
2018-12-07T07:55:48.039Z,90.08
2018-12-07T07:56:48.051Z,91.11
2018-12-07T07:57:48.017Z,90.59
2018-12-07T07:58:48.002Z,90.49
2018-12-07T07:59:47.993Z,90.19
2018-12-07T08:00:47.981Z,90.39
2018-12-07T08:01:47.986Z,89.98
2018-12-07T08:02:47.960Z,89.98
2018-12-07T08:03:47.949Z,89.67
2018-12-07T08:04:47.938Z,90.19
2018-12-07T08:05:47.923Z,90.19
2018-12-07T08:06:47.944Z,89.88
2018-12-07T08:07:47.903Z,89.78
2018-12-07T08:08:47.921Z,89.58
2018-12-07T08:09:47.922Z,89.58
2018-12-07T08:10:47.869Z,89.26
2018-12-07T08:11:47.860Z,89.78
2018-12-07T08:12:47.854Z,89.17
2018-12-07T08:13:47.862Z,89.26
2018-12-07T08:14:47.826Z,89.26
2018-12-07T08:15:47.813Z,89.17
2018-12-07T08:16:47.803Z,89.78
2018-12-07T08:17:47.817Z,89.67
2018-12-07T08:18:47.780Z,89.88
2018-12-07T08:19:47.843Z,89.78
2018-12-07T08:20:47.758Z,90.39
2018-12-07T08:21:47.771Z,90.19
2018-12-07T08:22:47.737Z,90.84
2018-12-07T08:23:47.726Z,91.31
2018-12-07T08:24:47.739Z,90.70
2018-12-07T08:25:47.703Z,90.29
2018-12-07T08:26:47.713Z,90.70
2018-12-07T08:27:47.679Z,90.49
2018-12-07T08:28:47.669Z,90.80
2018-12-07T08:29:47.778Z,90.29
2018-12-07T08:30:47.646Z,90.39
2018-12-07T08:31:47.635Z,90.80
2018-12-07T08:32:47.625Z,90.70
2018-12-07T08:33:47.612Z,90.39
2018-12-07T08:34:47.630Z,90.80
2018-12-07T08:35:47.594Z,90.19
2018-12-07T08:36:47.580Z,90.19
2018-12-07T08:37:47.568Z,90.80
2018-12-07T08:38:47.571Z,89.88
2018-12-07T08:39:47.548Z,90.80
2018-12-07T08:40:47.541Z,90.49
2018-12-07T08:41:47.557Z,89.67
2018-12-07T08:42:47.513Z,89.88
2018-12-07T08:43:47.502Z,89.98
2018-12-07T08:44:47.490Z,89.98
2018-12-07T08:45:47.479Z,89.98
2018-12-07T08:46:47.490Z,89.67
2018-12-07T08:47:47.461Z,89.37
2018-12-07T08:48:47.446Z,89.88
2018-12-07T08:49:47.436Z,89.47
2018-12-07T08:50:47.428Z,89.73
2018-12-07T08:51:47.433Z,89.78
2018-12-07T08:52:47.405Z,89.63
2018-12-07T08:53:47.390Z,89.73
2018-12-07T08:54:47.379Z,90.19
2018-12-07T08:55:47.392Z,89.43
2018-12-07T08:56:47.359Z,89.84
2018-12-07T08:57:47.348Z,90.04
2018-12-07T08:58:47.336Z,89.84
2018-12-07T08:59:47.350Z,89.88
2018-12-07T09:00:47.312Z,90.70
2018-12-07T09:01:47.305Z,91.00
2018-12-07T09:02:47.291Z,89.78
2018-12-07T09:03:47.284Z,90.90
2018-12-07T09:04:47.304Z,90.70
2018-12-07T09:05:47.257Z,91.52
2018-12-07T09:06:47.246Z,91.31
2018-12-07T09:07:47.246Z,91.46
2018-12-07T09:08:47.224Z,91.20
2018-12-07T09:09:47.239Z,92.43
2018-12-07T09:10:47.202Z,92.68
2018-12-07T09:11:47.191Z,91.92
2018-12-07T09:12:47.182Z,92.02
2018-12-07T09:13:47.173Z,92.33
2018-12-07T09:14:47.181Z,92.64
2018-12-07T09:15:47.147Z,92.37
2018-12-07T09:16:47.150Z,92.13
2018-12-07T09:17:48.756Z,92.13
2018-12-07T09:18:47.115Z,92.43
2018-12-07T09:19:47.125Z,92.02
2018-12-07T09:20:53.670Z,91.92
2018-12-07T09:21:48.080Z,91.82
2018-12-07T09:22:47.072Z,91.82
2018-12-07T09:23:49.652Z,91.92
2018-12-07T09:24:47.070Z,92.23
2018-12-07T09:25:47.036Z,91.82
2018-12-07T09:26:47.028Z,92.02
2018-12-07T09:27:47.020Z,92.33
2018-12-07T09:28:47.006Z,91.41
2018-12-07T09:29:47.015Z,91.82
2018-12-07T09:30:46.981Z,91.82
2018-12-07T09:31:46.971Z,91.52
2018-12-07T09:32:46.970Z,91.82
2018-12-07T09:33:46.971Z,91.52
2018-12-07T09:34:46.936Z,92.02
2018-12-07T09:35:46.926Z,91.82
2018-12-07T09:36:46.930Z,91.31
2018-12-07T09:37:46.904Z,91.41
2018-12-07T09:38:46.894Z,91.52
2018-12-07T09:39:46.914Z,91.41
2018-12-07T09:40:46.874Z,91.61
2018-12-07T09:41:46.861Z,91.20
2018-12-07T09:42:46.848Z,91.82
2018-12-07T09:43:46.839Z,91.67
2018-12-07T09:44:46.849Z,91.16
2018-12-07T09:45:46.815Z,90.75
2018-12-07T09:46:46.807Z,90.75
2018-12-07T09:47:46.818Z,90.66
2018-12-07T09:48:46.782Z,90.96
2018-12-07T09:49:46.773Z,90.96
2018-12-07T09:50:46.762Z,90.31
2018-12-07T09:51:46.777Z,89.84
2018-12-07T09:52:46.774Z,89.63
2018-12-07T09:53:46.728Z,89.90
2018-12-07T09:54:46.717Z,89.53
2018-12-07T09:55:46.705Z,89.73
2018-12-07T09:56:46.692Z,89.49
2018-12-07T09:57:46.717Z,89.53
2018-12-07T09:58:46.671Z,88.71
2018-12-07T09:59:46.663Z,89.23
2018-12-07T10:00:46.648Z,89.12
2018-12-07T10:01:46.641Z,89.43
2018-12-07T10:02:46.648Z,89.02
2018-12-07T10:03:46.615Z,89.02
2018-12-07T10:04:46.605Z,89.32
2018-12-07T10:05:46.593Z,89.73
2018-12-07T10:06:46.582Z,89.32
2018-12-07T10:07:46.603Z,89.53
2018-12-07T10:08:46.562Z,89.32
2018-12-07T10:09:46.553Z,89.12
2018-12-07T10:10:46.544Z,89.23
2018-12-07T10:11:46.528Z,89.02
2018-12-07T10:12:46.539Z,88.10
2018-12-07T10:13:46.506Z,88.92
2018-12-07T10:14:46.497Z,88.85
2018-12-07T10:15:46.482Z,89.23
2018-12-07T10:16:46.494Z,88.31
2018-12-07T10:17:46.461Z,89.37
2018-12-07T10:18:46.450Z,89.17
2018-12-07T10:19:46.438Z,89.43
2018-12-07T10:20:46.426Z,89.12
2018-12-07T10:21:46.442Z,88.96
2018-12-07T10:22:46.406Z,87.94
2018-12-07T10:23:46.416Z,88.41
2018-12-07T10:24:46.388Z,88.45
2018-12-07T10:25:46.394Z,88.45
2018-12-07T10:26:46.362Z,87.73
2018-12-07T10:27:46.350Z,87.84
2018-12-07T10:28:46.339Z,87.94
2018-12-07T10:29:46.331Z,87.43
2018-12-07T10:30:46.340Z,88.00
2018-12-07T10:31:46.305Z,88.24
2018-12-07T10:32:46.295Z,87.53
2018-12-07T10:33:46.334Z,87.43
2018-12-07T10:34:46.273Z,88.04
2018-12-07T10:35:46.262Z,88.24
2018-12-07T10:36:46.250Z,87.63
2018-12-07T10:37:46.250Z,88.45
2018-12-07T10:38:46.252Z,88.24
2018-12-07T10:39:46.220Z,87.53
2018-12-07T10:40:46.208Z,88.04
2018-12-07T10:41:46.197Z,88.04
2018-12-07T10:42:46.206Z,87.63
2018-12-07T10:43:46.181Z,88.55
2018-12-07T10:44:46.164Z,88.18
2018-12-07T10:45:46.176Z,88.65
2018-12-07T10:46:46.141Z,88.49
2018-12-07T10:47:50.338Z,88.39
2018-12-07T10:48:46.122Z,88.59
2018-12-07T10:49:46.146Z,88.29
2018-12-07T10:50:46.098Z,87.98
2018-12-07T10:51:46.084Z,89.31
2018-12-07T10:52:46.075Z,89.00
2018-12-07T10:53:46.069Z,89.61
2018-12-07T10:54:46.078Z,88.29
2018-12-07T10:55:46.066Z,89.41
2018-12-07T10:56:46.030Z,88.45
2018-12-07T10:57:46.017Z,88.79
2018-12-07T10:58:46.009Z,88.59
2018-12-07T10:59:46.928Z,88.70
2018-12-07T11:00:46.012Z,88.70
2018-12-07T11:01:45.996Z,89.51
2018-12-07T11:02:45.965Z,89.51
2018-12-07T11:03:45.951Z,89.20
2018-12-07T11:04:45.942Z,89.61
2018-12-07T11:05:45.930Z,89.92
2018-12-07T11:06:45.965Z,89.61
2018-12-07T11:07:45.906Z,89.61
2018-12-07T11:08:45.897Z,88.79
2018-12-07T11:09:45.890Z,89.51
2018-12-07T11:10:45.891Z,89.82
2018-12-07T11:11:45.912Z,89.82
2018-12-07T11:12:45.905Z,89.92
2018-12-07T11:13:45.842Z,89.92
2018-12-07T11:14:45.830Z,89.92
2018-12-07T11:15:45.821Z,90.23
2018-12-07T11:16:45.870Z,89.82
2018-12-07T11:17:45.846Z,90.33
2018-12-07T11:18:45.815Z,90.12
2018-12-07T11:19:45.774Z,91.25
2018-12-07T11:20:45.763Z,91.39
2018-12-07T11:21:45.759Z,90.17
2018-12-07T11:22:45.775Z,90.12
2018-12-07T11:23:45.742Z,90.74
2018-12-07T11:24:45.720Z,90.27
2018-12-07T11:25:45.757Z,89.72
2018-12-07T11:26:45.699Z,89.86
2018-12-07T11:27:45.731Z,90.27
2018-12-07T11:28:45.675Z,90.06
2018-12-07T11:29:45.665Z,89.82
2018-12-07T11:30:45.655Z,89.31
2018-12-07T11:31:45.643Z,89.20
2018-12-07T11:32:45.658Z,89.45
2018-12-07T11:33:45.625Z,89.31
2018-12-07T11:34:46.370Z,89.15
2018-12-07T11:35:45.631Z,89.31
2018-12-07T11:36:45.594Z,89.25
2018-12-07T11:37:45.576Z,89.61
2018-12-07T11:38:45.565Z,89.11
2018-12-07T11:39:45.558Z,89.51
2018-12-07T11:40:45.576Z,89.51
2018-12-07T11:41:45.555Z,89.45
2018-12-07T11:42:45.525Z,89.20
2018-12-07T11:43:45.511Z,89.20
2018-12-07T11:44:45.521Z,88.49
2018-12-07T11:45:45.486Z,89.45
2018-12-07T11:46:45.478Z,88.12
2018-12-07T11:47:45.464Z,88.43
2018-12-07T11:48:45.826Z,88.43
2018-12-07T11:49:45.472Z,88.43
2018-12-07T11:50:45.448Z,87.98
2018-12-07T11:51:45.449Z,88.18
2018-12-07T11:52:45.410Z,87.77
2018-12-07T11:53:45.397Z,87.77
2018-12-07T11:54:45.916Z,87.98
2018-12-07T11:55:45.381Z,87.47
2018-12-07T11:56:45.364Z,87.57
2018-12-07T11:57:45.357Z,86.96
2018-12-07T11:58:45.366Z,87.37
2018-12-07T11:59:45.337Z,87.16
2018-12-07T12:00:45.324Z,87.57
2018-12-07T12:01:45.333Z,87.57
2018-12-07T12:02:45.304Z,87.47
2018-12-07T12:03:45.343Z,87.16
2018-12-07T12:04:45.276Z,87.37
2018-12-07T12:05:45.287Z,87.16
2018-12-07T12:06:45.253Z,87.57
2018-12-07T12:07:45.241Z,87.88
2018-12-07T12:08:45.239Z,87.57
2018-12-07T12:09:45.248Z,88.49
2018-12-07T12:10:45.228Z,88.02
2018-12-07T12:11:45.198Z,87.88
2018-12-07T12:12:45.187Z,88.18
2018-12-07T12:13:45.179Z,87.77
2018-12-07T12:14:45.189Z,87.51
2018-12-07T12:15:45.157Z,87.98
2018-12-07T12:16:45.143Z,87.61
2018-12-07T12:17:45.133Z,87.16
2018-12-07T12:18:45.143Z,87.57
2018-12-07T12:19:45.110Z,87.26
2018-12-07T12:20:45.126Z,87.57
2018-12-07T12:21:45.089Z,87.57
2018-12-07T12:22:45.100Z,87.77
2018-12-07T12:23:45.065Z,87.37
2018-12-07T12:24:45.054Z,87.67
2018-12-07T12:25:45.046Z,87.06
2018-12-07T12:26:45.056Z,87.06
2018-12-07T12:27:45.023Z,87.57
2018-12-07T12:28:45.035Z,87.47
2018-12-07T12:29:45.022Z,87.16
2018-12-07T12:30:44.991Z,87.06
2018-12-07T12:31:44.981Z,86.65
2018-12-07T12:32:44.990Z,86.76
2018-12-07T12:33:44.958Z,86.96
2018-12-07T12:34:44.946Z,87.47
2018-12-07T12:35:44.934Z,86.85
2018-12-07T12:36:44.924Z,86.65
2018-12-07T12:37:44.935Z,86.65
2018-12-07T12:38:44.942Z,86.24
2018-12-07T12:39:44.895Z,86.24
2018-12-07T12:40:44.912Z,86.65
2018-12-07T12:41:46.851Z,86.04
2018-12-07T12:42:44.856Z,86.04
2018-12-07T12:43:44.844Z,86.14
2018-12-07T12:44:44.852Z,86.24
2018-12-07T12:45:44.825Z,86.24
2018-12-07T12:46:44.815Z,85.83
2018-12-07T12:47:44.804Z,85.32
2018-12-07T12:48:44.824Z,85.63
2018-12-07T12:49:44.780Z,86.35
2018-12-07T12:50:46.365Z,85.94
2018-12-07T12:51:44.759Z,86.44
2018-12-07T12:52:44.745Z,86.65